Baxley, Georgia
Current Conditions -  °F | °C
As of 2:35 AM on Sunday 23 Nov 2014 (Local Time) from KBHC Reporting Station
Heavy Rain Heavy Rain  
Wind Chill: 16°   Ceiling: 500
Heat Index: 16°   Visibility: 5mi
Dew Point: 15°   Wind: 7mph
Humidity: 94%   Direction: 40°NE
Pressure: 30.12"   Gusts: NA
Location:  31.76°N, 82.35°W
Report Text: KBHC 230735Z AUTO 04006KT 5SM +RA BKN005 BKN009 OVC022 16/15 A3012 RMK AO2
Loading
Personal Weather Stations






























Interactive Weather Map New forecast layout! Learn more

10-Day Weather Forecast

Advertisements
Track Severe Weather on mobile